アンカレッジ/テッド・スティーブンス の空港の天気 - METARとTAF

テッド・スティーブンス・アンカレッジ国際空港 ( PANC / ANC ) - アメリカ アラスカ州アンカレッジ
飛行場実況気象(Metar)
観測時間06/24 01:53 AKDT (06/24 09:53 UTC)
風向・風速南 4m/s
視程10km以上
天気現象
少しの雲 雲底高度 1520m
全天の4割程度の雲 雲底高度 2290m
全天の8割程度の雲 雲底高度 2740m
全天の8割程度の雲 雲底高度 6100m
気温17.8℃
湿度70%
気圧1015.7hPa
METARPANC 240953Z 17008KT 10SM FEW050 SCT075 BKN090 BKN200 18/12 A3000 RMK AO2 SLP157 VCSH NW-N T01780122
過去の天気等 Google飛行場航空写真 Wunderground天気予報

過去48時間のMETAR

飛行場予報(TAF)
発表時間: 6/23 21:40 AKDT (6/24 05:40 UTC)
予報対象時間: 23日22時 AKDT ~ 25日4時 AKDT
風向・風速南南西 3m/s
視程10km以上
少しの雲 雲底高度 1520m
全天の8割程度の雲 雲底高度 2440m
24日10時 AKDT から
風向・風速西 3m/s
視程10km以上
少しの雲 雲底高度 1520m
全天の4割程度の雲 雲底高度 6100m
PANC 240540Z 2406/2512 20006KT P6SM FEW050 BKN080
FM241800 28006KT P6SM FEW050 SCT200